sensor_id;sensor_type;location;lat;lon;timestamp;P1;durP1;ratioP1;P2;durP2;ratioP2
10947;SDS011;5526;42.070;24.752;2023-03-23T00:01:00;26.05;;;21.65;;
10947;SDS011;5526;42.070;24.752;2023-03-23T00:03:28;26.50;;;21.05;;
10947;SDS011;5526;42.070;24.752;2023-03-23T00:05:57;23.70;;;19.83;;
10947;SDS011;5526;42.070;24.752;2023-03-23T00:08:31;23.42;;;19.55;;
10947;SDS011;5526;42.070;24.752;2023-03-23T00:10:58;20.88;;;18.45;;
10947;SDS011;5526;42.070;24.752;2023-03-23T00:13:27;22.73;;;18.17;;
10947;SDS011;5526;42.070;24.752;2023-03-23T00:15:55;20.80;;;18.20;;
10947;SDS011;5526;42.070;24.752;2023-03-23T00:18:23;20.55;;;18.15;;
10947;SDS011;5526;42.070;24.752;2023-03-23T00:20:51;21.48;;;18.25;;
10947;SDS011;5526;42.070;24.752;2023-03-23T00:23:20;19.50;;;17.40;;
10947;SDS011;5526;42.070;24.752;2023-03-23T00:25:51;19.58;;;17.48;;
10947;SDS011;5526;42.070;24.752;2023-03-23T00:28:21;19.75;;;17.05;;
10947;SDS011;5526;42.070;24.752;2023-03-23T00:30:56;23.08;;;18.60;;
10947;SDS011;5526;42.070;24.752;2023-03-23T00:33:24;21.33;;;18.40;;
10947;SDS011;5526;42.070;24.752;2023-03-23T00:35:52;22.50;;;18.92;;
10947;SDS011;5526;42.070;24.752;2023-03-23T00:38:20;22.27;;;18.88;;
10947;SDS011;5526;42.070;24.752;2023-03-23T00:40:48;20.58;;;17.25;;
10947;SDS011;5526;42.070;24.752;2023-03-23T00:43:18;21.27;;;18.67;;
10947;SDS011;5526;42.070;24.752;2023-03-23T00:45:45;37.72;;;26.75;;
10947;SDS011;5526;42.070;24.752;2023-03-23T00:48:17;27.73;;;22.25;;
10947;SDS011;5526;42.070;24.752;2023-03-23T00:50:45;23.73;;;19.88;;
10947;SDS011;5526;42.070;24.752;2023-03-23T00:53:12;21.08;;;18.73;;
10947;SDS011;5526;42.070;24.752;2023-03-23T00:55:40;24.52;;;19.10;;
10947;SDS011;5526;42.070;24.752;2023-03-23T00:58:07;21.70;;;18.88;;
10947;SDS011;5526;42.070;24.752;2023-03-23T01:00:36;22.65;;;18.98;;
10947;SDS011;5526;42.070;24.752;2023-03-23T01:03:03;21.40;;;18.88;;
10947;SDS011;5526;42.070;24.752;2023-03-23T01:05:33;24.08;;;19.40;;
10947;SDS011;5526;42.070;24.752;2023-03-23T01:08:01;23.73;;;19.75;;
10947;SDS011;5526;42.070;24.752;2023-03-23T01:10:29;27.20;;;22.55;;
10947;SDS011;5526;42.070;24.752;2023-03-23T01:12:57;25.52;;;21.65;;
10947;SDS011;5526;42.070;24.752;2023-03-23T01:15:25;27.02;;;23.70;;
10947;SDS011;5526;42.070;24.752;2023-03-23T01:17:54;30.45;;;24.17;;
10947;SDS011;5526;42.070;24.752;2023-03-23T01:20:22;28.55;;;24.10;;
10947;SDS011;5526;42.070;24.752;2023-03-23T01:22:51;27.02;;;22.45;;
10947;SDS011;5526;42.070;24.752;2023-03-23T01:25:25;28.17;;;23.05;;
10947;SDS011;5526;42.070;24.752;2023-03-23T01:27:53;27.08;;;23.17;;
10947;SDS011;5526;42.070;24.752;2023-03-23T01:30:21;27.27;;;23.20;;
10947;SDS011;5526;42.070;24.752;2023-03-23T01:32:48;28.25;;;23.25;;
10947;SDS011;5526;42.070;24.752;2023-03-23T01:35:17;29.23;;;23.80;;
10947;SDS011;5526;42.070;24.752;2023-03-23T01:37:44;28.73;;;22.98;;
10947;SDS011;5526;42.070;24.752;2023-03-23T01:40:14;29.00;;;24.15;;
10947;SDS011;5526;42.070;24.752;2023-03-23T01:42:42;31.48;;;24.73;;
10947;SDS011;5526;42.070;24.752;2023-03-23T01:47:57;30.70;;;25.25;;
10947;SDS011;5526;42.070;24.752;2023-03-23T01:50:31;32.05;;;25.05;;
10947;SDS011;5526;42.070;24.752;2023-03-23T01:53:05;32.45;;;25.23;;
10947;SDS011;5526;42.070;24.752;2023-03-23T01:55:35;32.88;;;25.60;;
10947;SDS011;5526;42.070;24.752;2023-03-23T01:58:05;33.92;;;26.63;;
10947;SDS011;5526;42.070;24.752;2023-03-23T02:00:34;35.25;;;27.50;;
10947;SDS011;5526;42.070;24.752;2023-03-23T02:03:02;35.78;;;27.40;;
10947;SDS011;5526;42.070;24.752;2023-03-23T02:05:33;36.53;;;28.45;;
10947;SDS011;5526;42.070;24.752;2023-03-23T02:08:04;36.40;;;27.95;;
10947;SDS011;5526;42.070;24.752;2023-03-23T02:10:33;33.53;;;25.88;;
10947;SDS011;5526;42.070;24.752;2023-03-23T02:13:02;34.75;;;27.20;;
10947;SDS011;5526;42.070;24.752;2023-03-23T02:15:32;35.10;;;27.02;;
10947;SDS011;5526;42.070;24.752;2023-03-23T02:18:13;32.00;;;26.23;;
10947;SDS011;5526;42.070;24.752;2023-03-23T02:24:09;33.58;;;26.50;;
10947;SDS011;5526;42.070;24.752;2023-03-23T02:26:47;36.13;;;26.50;;
10947;SDS011;5526;42.070;24.752;2023-03-23T02:29:24;35.22;;;26.48;;
10947;SDS011;5526;42.070;24.752;2023-03-23T02:32:16;36.75;;;26.73;;
10947;SDS011;5526;42.070;24.752;2023-03-23T02:35:16;36.53;;;27.88;;
10947;SDS011;5526;42.070;24.752;2023-03-23T02:37:48;33.25;;;25.98;;
10947;SDS011;5526;42.070;24.752;2023-03-23T02:40:19;34.33;;;26.10;;
10947;SDS011;5526;42.070;24.752;2023-03-23T02:42:50;43.05;;;30.33;;
10947;SDS011;5526;42.070;24.752;2023-03-23T02:45:20;39.38;;;28.75;;
10947;SDS011;5526;42.070;24.752;2023-03-23T02:47:51;37.58;;;27.50;;
10947;SDS011;5526;42.070;24.752;2023-03-23T02:50:23;40.88;;;28.02;;
10947;SDS011;5526;42.070;24.752;2023-03-23T02:52:54;37.63;;;28.90;;
10947;SDS011;5526;42.070;24.752;2023-03-23T02:55:23;38.63;;;29.23;;
10947;SDS011;5526;42.070;24.752;2023-03-23T02:57:54;37.45;;;28.83;;
10947;SDS011;5526;42.070;24.752;2023-03-23T03:00:21;42.33;;;30.92;;
10947;SDS011;5526;42.070;24.752;2023-03-23T03:02:48;40.13;;;30.13;;
10947;SDS011;5526;42.070;24.752;2023-03-23T03:05:21;42.30;;;30.38;;
10947;SDS011;5526;42.070;24.752;2023-03-23T03:08:01;40.05;;;31.10;;
10947;SDS011;5526;42.070;24.752;2023-03-23T03:10:41;42.97;;;31.17;;
10947;SDS011;5526;42.070;24.752;2023-03-23T03:13:14;43.53;;;31.17;;
10947;SDS011;5526;42.070;24.752;2023-03-23T03:15:49;45.35;;;32.50;;
10947;SDS011;5526;42.070;24.752;2023-03-23T03:18:23;48.15;;;33.08;;
10947;SDS011;5526;42.070;24.752;2023-03-23T03:20:56;44.35;;;31.67;;
10947;SDS011;5526;42.070;24.752;2023-03-23T03:23:29;42.88;;;32.15;;
10947;SDS011;5526;42.070;24.752;2023-03-23T03:25:58;41.47;;;30.60;;
10947;SDS011;5526;42.070;24.752;2023-03-23T03:28:27;41.05;;;30.88;;
10947;SDS011;5526;42.070;24.752;2023-03-23T03:30:54;43.63;;;31.52;;
10947;SDS011;5526;42.070;24.752;2023-03-23T03:33:25;41.88;;;31.10;;
10947;SDS011;5526;42.070;24.752;2023-03-23T03:35:58;46.45;;;32.38;;
10947;SDS011;5526;42.070;24.752;2023-03-23T03:38:27;44.42;;;32.75;;
10947;SDS011;5526;42.070;24.752;2023-03-23T03:40:55;44.40;;;32.50;;
10947;SDS011;5526;42.070;24.752;2023-03-23T03:43:22;43.38;;;31.80;;
10947;SDS011;5526;42.070;24.752;2023-03-23T03:45:49;43.28;;;32.22;;
10947;SDS011;5526;42.070;24.752;2023-03-23T03:48:16;44.70;;;32.72;;
10947;SDS011;5526;42.070;24.752;2023-03-23T03:50:43;42.85;;;31.13;;
10947;SDS011;5526;42.070;24.752;2023-03-23T03:53:11;43.08;;;32.63;;
10947;SDS011;5526;42.070;24.752;2023-03-23T03:55:39;41.67;;;30.80;;
10947;SDS011;5526;42.070;24.752;2023-03-23T03:58:11;41.17;;;30.77;;
10947;SDS011;5526;42.070;24.752;2023-03-23T04:00:38;40.92;;;30.02;;
10947;SDS011;5526;42.070;24.752;2023-03-23T04:03:06;43.20;;;32.25;;
10947;SDS011;5526;42.070;24.752;2023-03-23T04:05:34;45.00;;;31.75;;
10947;SDS011;5526;42.070;24.752;2023-03-23T04:08:01;40.05;;;30.08;;
10947;SDS011;5526;42.070;24.752;2023-03-23T04:10:30;41.72;;;31.27;;
10947;SDS011;5526;42.070;24.752;2023-03-23T04:12:58;37.63;;;29.33;;
10947;SDS011;5526;42.070;24.752;2023-03-23T04:15:26;39.95;;;30.25;;
10947;SDS011;5526;42.070;24.752;2023-03-23T04:17:53;39.00;;;30.08;;
10947;SDS011;5526;42.070;24.752;2023-03-23T04:20:22;38.55;;;29.48;;
10947;SDS011;5526;42.070;24.752;2023-03-23T04:22:49;36.28;;;28.23;;
10947;SDS011;5526;42.070;24.752;2023-03-23T04:25:17;37.92;;;28.75;;
10947;SDS011;5526;42.070;24.752;2023-03-23T04:27:47;36.67;;;29.65;;
10947;SDS011;5526;42.070;24.752;2023-03-23T04:30:17;38.38;;;28.77;;
10947;SDS011;5526;42.070;24.752;2023-03-23T04:32:47;33.88;;;28.55;;
10947;SDS011;5526;42.070;24.752;2023-03-23T04:35:18;34.35;;;27.77;;
10947;SDS011;5526;42.070;24.752;2023-03-23T04:37:46;40.38;;;30.70;;
10947;SDS011;5526;42.070;24.752;2023-03-23T04:40:14;37.47;;;29.83;;
10947;SDS011;5526;42.070;24.752;2023-03-23T04:42:42;37.80;;;29.88;;
10947;SDS011;5526;42.070;24.752;2023-03-23T04:45:14;37.17;;;31.20;;
10947;SDS011;5526;42.070;24.752;2023-03-23T04:47:47;38.88;;;31.15;;
10947;SDS011;5526;42.070;24.752;2023-03-23T04:50:18;35.53;;;29.42;;
10947;SDS011;5526;42.070;24.752;2023-03-23T04:52:49;38.70;;;28.95;;
10947;SDS011;5526;42.070;24.752;2023-03-23T04:55:17;36.90;;;28.98;;
10947;SDS011;5526;42.070;24.752;2023-03-23T04:57:46;35.72;;;28.13;;
10947;SDS011;5526;42.070;24.752;2023-03-23T05:00:15;36.80;;;28.92;;
10947;SDS011;5526;42.070;24.752;2023-03-23T05:02:43;35.28;;;27.92;;
10947;SDS011;5526;42.070;24.752;2023-03-23T05:05:12;33.63;;;28.83;;
10947;SDS011;5526;42.070;24.752;2023-03-23T05:07:40;38.95;;;30.90;;
10947;SDS011;5526;42.070;24.752;2023-03-23T05:10:09;34.95;;;29.00;;
10947;SDS011;5526;42.070;24.752;2023-03-23T05:12:37;36.53;;;28.52;;
10947;SDS011;5526;42.070;24.752;2023-03-23T05:15:05;34.63;;;28.80;;
10947;SDS011;5526;42.070;24.752;2023-03-23T05:17:35;35.30;;;27.65;;
10947;SDS011;5526;42.070;24.752;2023-03-23T05:20:03;33.70;;;27.55;;
10947;SDS011;5526;42.070;24.752;2023-03-23T05:22:33;33.50;;;27.85;;
10947;SDS011;5526;42.070;24.752;2023-03-23T05:25:01;33.80;;;27.27;;
10947;SDS011;5526;42.070;24.752;2023-03-23T05:27:29;32.92;;;27.10;;
10947;SDS011;5526;42.070;24.752;2023-03-23T05:29:56;32.13;;;27.08;;
10947;SDS011;5526;42.070;24.752;2023-03-23T05:32:23;36.25;;;28.08;;
10947;SDS011;5526;42.070;24.752;2023-03-23T05:34:55;32.38;;;26.83;;
10947;SDS011;5526;42.070;24.752;2023-03-23T05:37:23;33.47;;;27.15;;
10947;SDS011;5526;42.070;24.752;2023-03-23T05:39:51;36.20;;;27.75;;
10947;SDS011;5526;42.070;24.752;2023-03-23T05:42:20;33.35;;;26.95;;
10947;SDS011;5526;42.070;24.752;2023-03-23T05:44:48;34.90;;;28.67;;
10947;SDS011;5526;42.070;24.752;2023-03-23T05:47:15;34.45;;;28.70;;
10947;SDS011;5526;42.070;24.752;2023-03-23T05:49:43;35.22;;;28.58;;
10947;SDS011;5526;42.070;24.752;2023-03-23T05:52:12;32.75;;;28.08;;
10947;SDS011;5526;42.070;24.752;2023-03-23T05:54:39;33.53;;;28.05;;
10947;SDS011;5526;42.070;24.752;2023-03-23T05:57:06;32.80;;;29.00;;
10947;SDS011;5526;42.070;24.752;2023-03-23T05:59:34;34.50;;;28.27;;
10947;SDS011;5526;42.070;24.752;2023-03-23T06:02:01;32.30;;;27.73;;
10947;SDS011;5526;42.070;24.752;2023-03-23T06:04:28;36.28;;;30.83;;
10947;SDS011;5526;42.070;24.752;2023-03-23T06:06:55;33.25;;;28.15;;
10947;SDS011;5526;42.070;24.752;2023-03-23T06:09:23;31.45;;;27.20;;
10947;SDS011;5526;42.070;24.752;2023-03-23T06:11:50;35.42;;;28.67;;
10947;SDS011;5526;42.070;24.752;2023-03-23T06:14:18;33.80;;;27.73;;
10947;SDS011;5526;42.070;24.752;2023-03-23T06:16:45;32.50;;;26.75;;
10947;SDS011;5526;42.070;24.752;2023-03-23T06:19:12;31.70;;;26.25;;
10947;SDS011;5526;42.070;24.752;2023-03-23T06:21:39;31.63;;;27.02;;
10947;SDS011;5526;42.070;24.752;2023-03-23T06:24:07;30.75;;;27.02;;
10947;SDS011;5526;42.070;24.752;2023-03-23T06:26:36;30.67;;;25.30;;
10947;SDS011;5526;42.070;24.752;2023-03-23T06:29:06;30.88;;;24.60;;
10947;SDS011;5526;42.070;24.752;2023-03-23T06:31:36;29.25;;;26.05;;
10947;SDS011;5526;42.070;24.752;2023-03-23T06:34:05;28.67;;;23.92;;
10947;SDS011;5526;42.070;24.752;2023-03-23T06:36:32;29.85;;;25.67;;
10947;SDS011;5526;42.070;24.752;2023-03-23T06:39:00;27.30;;;24.08;;
10947;SDS011;5526;42.070;24.752;2023-03-23T06:41:29;28.65;;;24.85;;
10947;SDS011;5526;42.070;24.752;2023-03-23T06:43:58;29.75;;;25.70;;
10947;SDS011;5526;42.070;24.752;2023-03-23T06:46:26;29.15;;;26.02;;
10947;SDS011;5526;42.070;24.752;2023-03-23T06:48:53;29.00;;;25.60;;
10947;SDS011;5526;42.070;24.752;2023-03-23T06:51:22;28.85;;;24.10;;
10947;SDS011;5526;42.070;24.752;2023-03-23T06:53:49;27.50;;;24.20;;
10947;SDS011;5526;42.070;24.752;2023-03-23T06:56:16;28.10;;;25.02;;
10947;SDS011;5526;42.070;24.752;2023-03-23T06:58:43;28.80;;;25.70;;
10947;SDS011;5526;42.070;24.752;2023-03-23T07:01:12;30.50;;;25.73;;
10947;SDS011;5526;42.070;24.752;2023-03-23T07:03:40;29.40;;;26.20;;
10947;SDS011;5526;42.070;24.752;2023-03-23T07:06:08;33.67;;;26.17;;
10947;SDS011;5526;42.070;24.752;2023-03-23T07:08:35;30.27;;;25.20;;
10947;SDS011;5526;42.070;24.752;2023-03-23T07:11:03;28.60;;;23.88;;
10947;SDS011;5526;42.070;24.752;2023-03-23T07:13:30;30.83;;;24.75;;
10947;SDS011;5526;42.070;24.752;2023-03-23T07:15:57;31.17;;;25.70;;
10947;SDS011;5526;42.070;24.752;2023-03-23T07:18:26;28.13;;;24.98;;
10947;SDS011;5526;42.070;24.752;2023-03-23T07:20:53;32.30;;;25.77;;
10947;SDS011;5526;42.070;24.752;2023-03-23T07:23:20;30.65;;;25.48;;
10947;SDS011;5526;42.070;24.752;2023-03-23T07:25:47;30.50;;;24.90;;
10947;SDS011;5526;42.070;24.752;2023-03-23T07:28:14;29.98;;;24.85;;
10947;SDS011;5526;42.070;24.752;2023-03-23T07:30:42;31.77;;;25.85;;
10947;SDS011;5526;42.070;24.752;2023-03-23T07:33:09;32.08;;;25.70;;
10947;SDS011;5526;42.070;24.752;2023-03-23T07:35:38;32.40;;;25.88;;
10947;SDS011;5526;42.070;24.752;2023-03-23T07:38:05;32.20;;;26.30;;
10947;SDS011;5526;42.070;24.752;2023-03-23T07:40:33;30.25;;;26.42;;
10947;SDS011;5526;42.070;24.752;2023-03-23T07:43:02;31.45;;;26.98;;
10947;SDS011;5526;42.070;24.752;2023-03-23T07:45:30;32.00;;;25.58;;
10947;SDS011;5526;42.070;24.752;2023-03-23T07:47:57;29.42;;;26.13;;
10947;SDS011;5526;42.070;24.752;2023-03-23T07:50:24;32.35;;;26.15;;
10947;SDS011;5526;42.070;24.752;2023-03-23T07:52:53;28.52;;;25.42;;
10947;SDS011;5526;42.070;24.752;2023-03-23T07:55:21;30.58;;;26.42;;
10947;SDS011;5526;42.070;24.752;2023-03-23T07:57:50;30.25;;;25.13;;
10947;SDS011;5526;42.070;24.752;2023-03-23T08:00:18;29.95;;;25.55;;
10947;SDS011;5526;42.070;24.752;2023-03-23T08:02:49;27.60;;;24.48;;
10947;SDS011;5526;42.070;24.752;2023-03-23T08:05:17;30.00;;;25.40;;
10947;SDS011;5526;42.070;24.752;2023-03-23T08:07:45;28.65;;;25.60;;
10947;SDS011;5526;42.070;24.752;2023-03-23T08:10:15;29.98;;;25.33;;
10947;SDS011;5526;42.070;24.752;2023-03-23T08:12:43;27.02;;;24.10;;
10947;SDS011;5526;42.070;24.752;2023-03-23T08:15:13;27.27;;;24.38;;
10947;SDS011;5526;42.070;24.752;2023-03-23T08:17:41;24.75;;;22.02;;
10947;SDS011;5526;42.070;24.752;2023-03-23T08:20:08;25.17;;;22.58;;
10947;SDS011;5526;42.070;24.752;2023-03-23T08:22:38;25.10;;;21.15;;
10947;SDS011;5526;42.070;24.752;2023-03-23T08:25:09;25.10;;;22.52;;
10947;SDS011;5526;42.070;24.752;2023-03-23T08:27:39;24.25;;;21.65;;
10947;SDS011;5526;42.070;24.752;2023-03-23T08:30:09;23.58;;;21.17;;
10947;SDS011;5526;42.070;24.752;2023-03-23T08:32:37;23.15;;;20.70;;
10947;SDS011;5526;42.070;24.752;2023-03-23T08:35:05;23.77;;;21.25;;
10947;SDS011;5526;42.070;24.752;2023-03-23T08:37:34;23.40;;;21.17;;
10947;SDS011;5526;42.070;24.752;2023-03-23T08:40:01;24.38;;;21.88;;
10947;SDS011;5526;42.070;24.752;2023-03-23T08:42:34;23.15;;;20.75;;
10947;SDS011;5526;42.070;24.752;2023-03-23T08:45:02;23.67;;;21.35;;
10947;SDS011;5526;42.070;24.752;2023-03-23T08:47:30;24.05;;;21.55;;
10947;SDS011;5526;42.070;24.752;2023-03-23T08:49:57;21.65;;;19.48;;
10947;SDS011;5526;42.070;24.752;2023-03-23T08:52:25;21.92;;;19.63;;
10947;SDS011;5526;42.070;24.752;2023-03-23T08:54:52;23.02;;;20.70;;
10947;SDS011;5526;42.070;24.752;2023-03-23T08:57:19;21.38;;;18.67;;
10947;SDS011;5526;42.070;24.752;2023-03-23T08:59:46;21.17;;;19.05;;
10947;SDS011;5526;42.070;24.752;2023-03-23T09:02:15;20.67;;;18.40;;
10947;SDS011;5526;42.070;24.752;2023-03-23T09:04:42;20.15;;;18.25;;
10947;SDS011;5526;42.070;24.752;2023-03-23T09:07:09;18.52;;;16.60;;
10947;SDS011;5526;42.070;24.752;2023-03-23T09:09:37;19.95;;;18.05;;
10947;SDS011;5526;42.070;24.752;2023-03-23T09:12:05;21.13;;;18.92;;
10947;SDS011;5526;42.070;24.752;2023-03-23T09:14:33;19.60;;;17.60;;
10947;SDS011;5526;42.070;24.752;2023-03-23T09:17:01;20.23;;;18.17;;
10947;SDS011;5526;42.070;24.752;2023-03-23T09:19:30;18.48;;;16.60;;
10947;SDS011;5526;42.070;24.752;2023-03-23T09:22:00;19.33;;;17.40;;
10947;SDS011;5526;42.070;24.752;2023-03-23T09:24:28;21.23;;;19.30;;
10947;SDS011;5526;42.070;24.752;2023-03-23T09:26:56;18.85;;;16.95;;
10947;SDS011;5526;42.070;24.752;2023-03-23T09:29:23;17.60;;;15.77;;
10947;SDS011;5526;42.070;24.752;2023-03-23T09:31:51;17.55;;;15.85;;
10947;SDS011;5526;42.070;24.752;2023-03-23T09:34:18;20.85;;;17.52;;
10947;SDS011;5526;42.070;24.752;2023-03-23T09:36:47;19.00;;;17.10;;
10947;SDS011;5526;42.070;24.752;2023-03-23T09:39:15;17.95;;;16.30;;
10947;SDS011;5526;42.070;24.752;2023-03-23T09:44:41;18.98;;;17.13;;
10947;SDS011;5526;42.070;24.752;2023-03-23T09:47:23;18.55;;;16.75;;
10947;SDS011;5526;42.070;24.752;2023-03-23T09:49:59;17.83;;;15.93;;
10947;SDS011;5526;42.070;24.752;2023-03-23T09:52:36;21.52;;;19.38;;
10947;SDS011;5526;42.070;24.752;2023-03-23T09:55:07;18.55;;;16.65;;
10947;SDS011;5526;42.070;24.752;2023-03-23T09:57:39;18.95;;;16.83;;
10947;SDS011;5526;42.070;24.752;2023-03-23T10:00:10;17.77;;;15.98;;
10947;SDS011;5526;42.070;24.752;2023-03-23T10:02:43;17.48;;;15.57;;
10947;SDS011;5526;42.070;24.752;2023-03-23T10:08:05;17.42;;;15.73;;
10947;SDS011;5526;42.070;24.752;2023-03-23T10:10:41;17.38;;;15.57;;
10947;SDS011;5526;42.070;24.752;2023-03-23T10:13:24;16.70;;;15.10;;
10947;SDS011;5526;42.070;24.752;2023-03-23T10:16:02;17.15;;;15.45;;
10947;SDS011;5526;42.070;24.752;2023-03-23T10:18:32;16.98;;;15.25;;
10947;SDS011;5526;42.070;24.752;2023-03-23T10:21:03;18.45;;;14.95;;
10947;SDS011;5526;42.070;24.752;2023-03-23T10:23:49;18.70;;;15.73;;
10947;SDS011;5526;42.070;24.752;2023-03-23T10:26:25;17.27;;;15.48;;
10947;SDS011;5526;42.070;24.752;2023-03-23T10:29:08;17.05;;;15.25;;
10947;SDS011;5526;42.070;24.752;2023-03-23T10:31:42;16.88;;;15.18;;
10947;SDS011;5526;42.070;24.752;2023-03-23T10:34:15;18.65;;;16.88;;
10947;SDS011;5526;42.070;24.752;2023-03-23T10:36:51;16.80;;;15.15;;
10947;SDS011;5526;42.070;24.752;2023-03-23T10:39:28;16.30;;;14.60;;
10947;SDS011;5526;42.070;24.752;2023-03-23T10:42:00;17.38;;;15.35;;
10947;SDS011;5526;42.070;24.752;2023-03-23T10:44:32;16.48;;;14.82;;
10947;SDS011;5526;42.070;24.752;2023-03-23T10:47:01;16.40;;;14.80;;
10947;SDS011;5526;42.070;24.752;2023-03-23T10:49:32;17.10;;;15.52;;
10947;SDS011;5526;42.070;24.752;2023-03-23T10:52:06;15.57;;;13.98;;
10947;SDS011;5526;42.070;24.752;2023-03-23T10:54:49;14.82;;;13.40;;
10947;SDS011;5526;42.070;24.752;2023-03-23T10:57:22;14.80;;;12.38;;
10947;SDS011;5526;42.070;24.752;2023-03-23T10:59:57;10.95;;;9.95;;
10947;SDS011;5526;42.070;24.752;2023-03-23T11:02:25;10.70;;;9.73;;
10947;SDS011;5526;42.070;24.752;2023-03-23T11:04:57;12.27;;;11.15;;
10947;SDS011;5526;42.070;24.752;2023-03-23T11:07:31;11.23;;;10.05;;
10947;SDS011;5526;42.070;24.752;2023-03-23T11:10:06;8.85;;;8.15;;
10947;SDS011;5526;42.070;24.752;2023-03-23T11:12:44;11.38;;;9.98;;
10947;SDS011;5526;42.070;24.752;2023-03-23T11:15:21;11.27;;;10.25;;
10947;SDS011;5526;42.070;24.752;2023-03-23T11:17:59;11.70;;;10.55;;
10947;SDS011;5526;42.070;24.752;2023-03-23T11:20:28;11.77;;;10.68;;
10947;SDS011;5526;42.070;24.752;2023-03-23T11:23:01;10.52;;;9.63;;
10947;SDS011;5526;42.070;24.752;2023-03-23T11:25:39;10.95;;;9.85;;
10947;SDS011;5526;42.070;24.752;2023-03-23T11:28:28;11.02;;;10.02;;
10947;SDS011;5526;42.070;24.752;2023-03-23T11:30:58;11.35;;;10.32;;
10947;SDS011;5526;42.070;24.752;2023-03-23T11:33:30;10.20;;;9.32;;
10947;SDS011;5526;42.070;24.752;2023-03-23T11:36:02;10.25;;;9.35;;
10947;SDS011;5526;42.070;24.752;2023-03-23T11:38:30;10.00;;;8.95;;
10947;SDS011;5526;42.070;24.752;2023-03-23T11:41:00;10.45;;;9.55;;
10947;SDS011;5526;42.070;24.752;2023-03-23T11:43:27;10.32;;;9.32;;
10947;SDS011;5526;42.070;24.752;2023-03-23T11:45:58;10.00;;;9.20;;
10947;SDS011;5526;42.070;24.752;2023-03-23T11:48:33;9.25;;;8.45;;
10947;SDS011;5526;42.070;24.752;2023-03-23T11:51:05;9.18;;;8.27;;
10947;SDS011;5526;42.070;24.752;2023-03-23T11:53:41;8.98;;;8.18;;
10947;SDS011;5526;42.070;24.752;2023-03-23T11:56:18;8.60;;;7.80;;
10947;SDS011;5526;42.070;24.752;2023-03-23T11:58:50;8.00;;;7.22;;
10947;SDS011;5526;42.070;24.752;2023-03-23T12:01:28;8.88;;;7.95;;
10947;SDS011;5526;42.070;24.752;2023-03-23T12:04:14;9.82;;;7.90;;
10947;SDS011;5526;42.070;24.752;2023-03-23T12:06:59;8.50;;;7.70;;
10947;SDS011;5526;42.070;24.752;2023-03-23T12:09:38;8.30;;;7.60;;
10947;SDS011;5526;42.070;24.752;2023-03-23T12:12:16;8.38;;;7.53;;
10947;SDS011;5526;42.070;24.752;2023-03-23T12:14:55;7.75;;;7.07;;
10947;SDS011;5526;42.070;24.752;2023-03-23T12:17:31;8.95;;;7.88;;
10947;SDS011;5526;42.070;24.752;2023-03-23T12:20:12;10.40;;;7.65;;
10947;SDS011;5526;42.070;24.752;2023-03-23T12:22:50;9.48;;;8.02;;
10947;SDS011;5526;42.070;24.752;2023-03-23T12:25:39;8.73;;;7.93;;
10947;SDS011;5526;42.070;24.752;2023-03-23T12:28:37;9.32;;;8.43;;
10947;SDS011;5526;42.070;24.752;2023-03-23T12:31:15;9.07;;;8.25;;
10947;SDS011;5526;42.070;24.752;2023-03-23T12:33:53;8.73;;;8.00;;
10947;SDS011;5526;42.070;24.752;2023-03-23T12:36:30;8.07;;;7.28;;
10947;SDS011;5526;42.070;24.752;2023-03-23T12:39:13;9.18;;;7.97;;
10947;SDS011;5526;42.070;24.752;2023-03-23T12:42:02;8.18;;;7.30;;
10947;SDS011;5526;42.070;24.752;2023-03-23T12:44:41;8.68;;;7.60;;
10947;SDS011;5526;42.070;24.752;2023-03-23T12:47:36;8.23;;;7.43;;
10947;SDS011;5526;42.070;24.752;2023-03-23T12:50:11;8.30;;;7.60;;
10947;SDS011;5526;42.070;24.752;2023-03-23T12:52:45;8.98;;;8.18;;
10947;SDS011;5526;42.070;24.752;2023-03-23T12:55:18;9.13;;;7.93;;
10947;SDS011;5526;42.070;24.752;2023-03-23T12:57:49;8.10;;;7.30;;
10947;SDS011;5526;42.070;24.752;2023-03-23T13:00:26;7.70;;;7.00;;
10947;SDS011;5526;42.070;24.752;2023-03-23T13:02:57;8.57;;;7.60;;
10947;SDS011;5526;42.070;24.752;2023-03-23T13:05:36;8.68;;;7.88;;
10947;SDS011;5526;42.070;24.752;2023-03-23T13:08:11;8.23;;;7.50;;
10947;SDS011;5526;42.070;24.752;2023-03-23T13:10:42;7.03;;;6.53;;
10947;SDS011;5526;42.070;24.752;2023-03-23T13:13:13;5.40;;;5.00;;
10947;SDS011;5526;42.070;24.752;2023-03-23T13:15:47;5.30;;;4.90;;
10947;SDS011;5526;42.070;24.752;2023-03-23T13:18:24;5.45;;;4.90;;
10947;SDS011;5526;42.070;24.752;2023-03-23T13:20:59;5.75;;;5.28;;
10947;SDS011;5526;42.070;24.752;2023-03-23T13:23:34;6.15;;;5.65;;
10947;SDS011;5526;42.070;24.752;2023-03-23T13:26:05;5.95;;;5.40;;
10947;SDS011;5526;42.070;24.752;2023-03-23T13:28:47;5.75;;;5.30;;
10947;SDS011;5526;42.070;24.752;2023-03-23T13:31:21;6.25;;;5.65;;
10947;SDS011;5526;42.070;24.752;2023-03-23T13:33:58;5.60;;;5.20;;
10947;SDS011;5526;42.070;24.752;2023-03-23T13:36:29;6.50;;;5.90;;
10947;SDS011;5526;42.070;24.752;2023-03-23T13:38:58;6.28;;;5.65;;
10947;SDS011;5526;42.070;24.752;2023-03-23T13:41:27;5.70;;;5.20;;
10947;SDS011;5526;42.070;24.752;2023-03-23T13:44:04;6.47;;;5.90;;
10947;SDS011;5526;42.070;24.752;2023-03-23T13:46:53;5.65;;;5.18;;
10947;SDS011;5526;42.070;24.752;2023-03-23T13:49:21;5.53;;;5.03;;
10947;SDS011;5526;42.070;24.752;2023-03-23T13:51:59;5.97;;;5.38;;
10947;SDS011;5526;42.070;24.752;2023-03-23T13:54:39;5.97;;;5.47;;
10947;SDS011;5526;42.070;24.752;2023-03-23T13:57:23;6.40;;;5.85;;
10947;SDS011;5526;42.070;24.752;2023-03-23T13:59:57;6.43;;;5.82;;
10947;SDS011;5526;42.070;24.752;2023-03-23T14:02:42;6.68;;;6.03;;
10947;SDS011;5526;42.070;24.752;2023-03-23T14:05:30;6.30;;;5.70;;
10947;SDS011;5526;42.070;24.752;2023-03-23T14:08:01;5.38;;;4.95;;
10947;SDS011;5526;42.070;24.752;2023-03-23T14:10:37;6.40;;;5.78;;
10947;SDS011;5526;42.070;24.752;2023-03-23T14:13:10;5.78;;;5.28;;
10947;SDS011;5526;42.070;24.752;2023-03-23T14:15:43;5.40;;;4.90;;
10947;SDS011;5526;42.070;24.752;2023-03-23T14:18:22;5.90;;;5.40;;
10947;SDS011;5526;42.070;24.752;2023-03-23T14:20:52;5.55;;;5.05;;
10947;SDS011;5526;42.070;24.752;2023-03-23T14:23:19;4.95;;;4.55;;
10947;SDS011;5526;42.070;24.752;2023-03-23T14:25:54;4.05;;;3.70;;
10947;SDS011;5526;42.070;24.752;2023-03-23T14:28:23;4.40;;;4.00;;
10947;SDS011;5526;42.070;24.752;2023-03-23T14:30:53;4.25;;;3.85;;
10947;SDS011;5526;42.070;24.752;2023-03-23T14:33:24;3.70;;;3.50;;
10947;SDS011;5526;42.070;24.752;2023-03-23T14:35:53;5.75;;;5.25;;
10947;SDS011;5526;42.070;24.752;2023-03-23T14:38:23;5.05;;;4.65;;
10947;SDS011;5526;42.070;24.752;2023-03-23T14:40:59;4.90;;;4.50;;
10947;SDS011;5526;42.070;24.752;2023-03-23T14:43:28;4.93;;;4.53;;
10947;SDS011;5526;42.070;24.752;2023-03-23T14:45:58;5.00;;;4.60;;
10947;SDS011;5526;42.070;24.752;2023-03-23T14:48:29;5.15;;;4.75;;
10947;SDS011;5526;42.070;24.752;2023-03-23T14:50:57;4.75;;;4.35;;
10947;SDS011;5526;42.070;24.752;2023-03-23T14:53:30;5.13;;;4.72;;
10947;SDS011;5526;42.070;24.752;2023-03-23T14:56:00;4.75;;;4.45;;
10947;SDS011;5526;42.070;24.752;2023-03-23T14:58:32;4.72;;;4.32;;
10947;SDS011;5526;42.070;24.752;2023-03-23T15:01:02;3.85;;;3.55;;
10947;SDS011;5526;42.070;24.752;2023-03-23T15:03:35;4.78;;;4.40;;